Weather observations for the past three days for
Newburgh / Stewart
| Date | Time (edt) | Wind (mph) | Vis. (mi.) | Weather | Sky Cond. | Temperature (ºF) | Relative Humidity | Wind Chill (°F) | Heat Index (°F) | Pressure | Precipitation (in) | ||||||
|---|---|---|---|---|---|---|---|---|---|---|---|---|---|---|---|---|---|
| Air | Dwpt | 6 hour | altimeter (in) | sea level (mb) | 1 hr | 3 hr | 6 hr | ||||||||||
| Max. | Min. | ||||||||||||||||
| 04 | 20:45 | SW 6 | 10.00 | Clear | SKC | 66.2 | 37.4 | 35% | 29.79 | 0.0 | |||||||
| 04 | 19:45 | SW 9 G 18 | 10.00 | A Few Clouds | FEW060 | 68 | 37.4 | 33% | 29.76 | 0.0 | |||||||
| 04 | 18:45 | SW 12 G 23 | 0.00 | A Few Clouds | FEW060 | 69.8 | 37.4 | 31% | 29.74 | 0.0 | |||||||
| 04 | 17:45 | SW 12 G 21 | 10.00 | A Few Clouds | FEW060 | 71.6 | 37.4 | 29% | 29.74 | 0.0 | |||||||
| 04 | 16:45 | SW 12 G 21 | 10.00 | Partly Cloudy | SCT060 | 71.6 | 37.4 | 29% | 29.76 | 0.0 | |||||||
| 04 | 15:45 | W 15 G 22 | 10.00 | Partly Cloudy | SCT060 | 69.8 | 37.4 | 31% | 29.77 | 0.0 | |||||||
| 04 | 14:45 | SW 17 G 26 | 10.00 | A Few Clouds | FEW060 | 69.8 | 35.6 | 29% | 29.79 | 0.0 | |||||||
| 04 | 13:45 | SW 16 G 23 | 10.00 | A Few Clouds | FEW060 | 68 | 35.6 | 30% | 29.81 | 0.0 | |||||||
| 04 | 12:45 | W 15 G 29 | 10.00 | A Few Clouds | FEW060 | 66.2 | 35.6 | 32% | 29.83 | 0.0 | |||||||
| 04 | 11:45 | SW 16 G 29 | 10.00 | A Few Clouds | FEW060 | 64.4 | 33.8 | 32% | 29.84 | 0.0 | |||||||
| 04 | 10:45 | SW 21 G 32 | 10.00 | Clear and Breezy | SKC | 64.4 | 33.8 | 32% | 29.86 | 0.0 | |||||||
| 04 | 09:45 | W 21 G 32 | 10.00 | Clear and Breezy | SKC | 60.8 | 33.8 | 36% | 29.87 | 0.0 | |||||||
| 04 | 08:45 | W 16 | 10.00 | Clear | SKC | 57.2 | 32 | 39% | 29.89 | 0.0 | |||||||
| 04 | 07:45 | W 14 | 10.00 | Clear | SKC | 51.8 | 30.2 | 44% | 29.89 | 0.0 | |||||||
| 04 | 06:45 | W 12 | 10.00 | Clear | SKC | 46.4 | 32 | 57% | 42 | 29.89 | 0.0 | ||||||
| 04 | 05:45 | W 12 | 10.00 | Clear | SKC | 46.4 | 30.2 | 53% | 42 | 29.88 | 0.0 | ||||||
| 04 | 04:45 | W 12 | 10.00 | Clear | SKC | 46.4 | 30.2 | 53% | 42 | 29.88 | 0.0 | ||||||
| 04 | 03:45 | W 7 | 10.00 | Clear | SKC | 44.6 | 30.2 | 57% | 41 | 29.88 | 0.0 | ||||||
| 04 | 02:45 | W 5 | 10.00 | Clear | SKC | 46.4 | 30.2 | 53% | 45 | 29.88 | 0.0 | ||||||
| 04 | 01:45 | W 6 | 10.00 | Clear | SKC | 46.4 | 30.2 | 53% | 44 | 29.87 | 0.0 | ||||||
| 04 | 00:45 | Calm | 10.00 | Clear | SKC | 42.8 | 33.8 | 71% | 29.86 | 0.0 | |||||||
| 03 | 23:45 | Calm | 10.00 | Clear | SKC | 44.6 | 33.8 | 66% | 29.86 | 0.0 | |||||||
| 03 | 22:45 | Calm | 10.00 | Partly Cloudy | SCT075 | 48.2 | 30.2 | 50% | 29.86 | 0.0 | |||||||
| 03 | 21:45 | W 3 | 10.00 | Clear | SKC | 48.2 | 32 | 54% | 29.86 | 0.0 | |||||||
| 03 | 20:45 | W 7 | 10.00 | Clear | SKC | 50 | 30.2 | 47% | 48 | 29.85 | 0.0 | ||||||
| 03 | 19:45 | NW 10 | 10.00 | Mostly Cloudy | BKN080 | 55.4 | 26.6 | 33% | 29.82 | 0.0 | |||||||
| 03 | 18:45 | NW 12 G 21 | 10.00 | Partly Cloudy | SCT080 | 57.2 | 24.8 | 29% | 29.81 | 0.0 | |||||||
| 03 | 17:45 | NW 20 G 29 | 10.00 | Partly Cloudy | SCT080 | 59 | 23 | 25% | 29.8 | 0.0 | |||||||
| 03 | 16:45 | NW 18 G 26 | 10.00 | Partly Cloudy | SCT080 | 57.2 | 23 | 27% | 29.8 | 0.0 | |||||||
| 03 | 15:45 | NW 9 G 24 | 10.00 | Partly Cloudy | SCT080 | 57.2 | 24.8 | 29% | 29.81 | 0.0 | |||||||
| 03 | 14:45 | NW 17 G 29 | 10.00 | Mostly Cloudy | BKN075 | 55.4 | 24.8 | 31% | 29.83 | 0.0 | |||||||
| 03 | 12:45 | NW 21 G 30 | 10.00 | Mostly Cloudy and Breezy | BKN075 | 51.8 | 23 | 32% | 29.85 | 0.0 | |||||||
| 03 | 11:45 | NW 21 G 30 | 10.00 | Mostly Cloudy and Breezy | BKN075 | 50 | 23 | 35% | 44 | 29.85 | 0.0 | ||||||
| 03 | 10:45 | NW 21 G 30 | 10.00 | Mostly Cloudy and Breezy | BKN075 | 48.2 | 23 | 37% | 42 | 29.86 | 0.0 | ||||||
| 03 | 09:45 | NW 14 G 23 | 10.00 | Mostly Cloudy | BKN080 | 48.2 | 28.4 | 46% | 43 | 29.86 | 0.0 | ||||||
| 03 | 08:45 | N 14 G 21 | 10.00 | Mostly Cloudy | BKN080 | 46.4 | 30.2 | 53% | 41 | 29.87 | 0.0 | ||||||
| 03 | 07:45 | NW 10 | 10.00 | Mostly Cloudy | BKN080 | 44.6 | 30.2 | 57% | 40 | 29.86 | 0.0 | ||||||
| 03 | 06:45 | NW 8 | 10.00 | Mostly Cloudy | BKN080 | 39.2 | 30.2 | 70% | 34 | 29.85 | 0.0 | ||||||
| 03 | 05:45 | Vrbl 6 | 10.00 | Mostly Cloudy | BKN070 | 39.2 | 30.2 | 70% | 36 | 29.83 | 0.0 | ||||||
| 03 | 02:45 | Vrbl 6 | 10.00 | Partly Cloudy | SCT070 | 44.6 | 32 | 61% | 42 | 29.84 | 0.0 | ||||||
| 03 | 01:45 | Vrbl 6 | 10.00 | Partly Cloudy | SCT070 | 44.6 | 30.2 | 57% | 42 | 29.85 | 0.0 | ||||||
| 02 | 23:45 | Vrbl 6 | 10.00 | Partly Cloudy | SCT070 | 44.6 | 28.4 | 53% | 42 | 29.85 | 0.0 | ||||||
| 02 | 22:45 | NW 5 | 7.00 | Mostly Cloudy | BKN075 | 48.2 | 28.4 | 46% | 47 | 29.87 | 0.0 | ||||||
| 02 | 21:45 | NW 5 | 7.00 | Mostly Cloudy | BKN075 | 48.2 | 28.4 | 46% | 47 | 29.87 | 0.0 | ||||||
| 02 | 20:45 | NW 5 | 10.00 | Mostly Cloudy | BKN075 | 51.8 | 28.4 | 41% | 29.85 | 0.0 | |||||||
| 02 | 19:45 | NW 5 | 10.00 | Mostly Cloudy | BKN075 | 51.8 | 28.4 | 41% | 29.85 | 0.0 | |||||||
| 02 | 18:45 | NW 14 | 10.00 | Mostly Cloudy | BKN075 | 55.4 | 28.4 | 36% | 29.84 | 0.0 | |||||||
| 02 | 17:45 | NW 7 | 10.00 | Mostly Cloudy | BKN075 | 55.4 | 28.4 | 36% | 29.82 | 0.0 | |||||||
| 02 | 16:45 | NW 7 | 10.00 | Mostly Cloudy | BKN075 | 57.2 | 28.4 | 33% | 29.81 | 0.0 | |||||||
| 02 | 15:45 | N 8 G 18 | 10.00 | Mostly Cloudy | BKN075 | 57.2 | 41 | 55% | 29.83 | 0.0 | |||||||
| 02 | 14:45 | E 8 | 10.00 | Mostly Cloudy | SCT060 BKN070 | 55.4 | 42.8 | 63% | 29.85 | 0.0 | |||||||
| 02 | 13:45 | E 9 | 10.00 | Mostly Cloudy | SCT035 BKN050 | 55.4 | 44.6 | 67% | 29.85 | 0.0 | |||||||
| 02 | 12:45 | E 5 | 10.00 | Mostly Cloudy | SCT025 BKN040 | 53.6 | 41 | 63% | 29.87 | 0.0 | |||||||
| 02 | 11:45 | NE 8 | 10.00 | Mostly Cloudy | SCT025 BKN040 | 51.8 | 44.6 | 77% | 29.88 | 0.0 | |||||||
| 02 | 10:45 | NW 9 | 10.00 | Partly Cloudy | BKN025 SCT060 | 48.2 | 44.6 | 87% | 45 | 29.88 | 0.0 | ||||||
| 02 | 09:45 | NW 9 | 10.00 | Overcast | SCT025 OVC060 | 48.2 | 44.6 | 87% | 45 | 29.9 | 0.0 | ||||||
| 02 | 08:45 | NW 9 | 10.00 | Mostly Cloudy | SCT030 BKN060 | 48.2 | 46.4 | 94% | 45 | 29.88 | 0.0 | ||||||
| 02 | 07:45 | W 7 | 10.00 | Mostly Cloudy | SCT050 BKN080 | 48.2 | 46.4 | 94% | 46 | 29.88 | 0.0 | ||||||
| 02 | 06:45 | Calm | 10.00 | Mostly Cloudy | SCT050 BKN080 | 48.2 | 48.2 | 100% | 29.86 | 0.0 | |||||||
| 02 | 05:45 | Calm | 10.00 | Mostly Cloudy | SCT050 BKN080 | 46.4 | 46.4 | 100% | 29.86 | 0.0 | |||||||
| 02 | 04:45 | Calm | 7.00 | Light Rain | BKN030 OVC060 | 46.4 | 46.4 | 100% | 29.85 | 0.0 | |||||||
| 02 | 03:45 | W 5 | 10.00 | Overcast | OVC060 | 50 | 41 | 71% | 49 | 29.85 | 0.0 | ||||||
| 02 | 02:45 | W 5 | 10.00 | Overcast | OVC060 | 50 | 41 | 71% | 49 | 29.86 | 0.0 | ||||||
| 02 | 01:45 | W 5 | 10.00 | Overcast | OVC060 | 50 | 44.6 | 82% | 49 | 29.87 | 0.0 | ||||||
| 02 | 00:45 | W 5 | 10.00 | Overcast | OVC060 | 50 | 44.6 | 82% | 49 | 29.87 | 0.0 | ||||||
| 01 | 23:45 | Calm | 10.00 | Overcast | OVC060 | 50 | 42.8 | 76% | 29.86 | 0.0 | |||||||
| 01 | 22:45 | Calm | 10.00 | Overcast | OVC060 | 51.8 | 41 | 67% | 29.87 | 0.0 | |||||||
| 01 | 21:45 | Calm | 10.00 | Mostly Cloudy | BKN085 | 51.8 | 39.2 | 62% | 29.86 | 0.0 | |||||||
| Date | Time (edt) | Wind (mph) | Vis. (mi.) | Weather | Sky Cond. | Air | Dwpt | Max. | Min. | Relative Humidity | Wind Chill (°F) | Heat Index (°F) | altimeter (in) | sea level (mb) | 1 hr | 3 hr | 6 hr |
| 6 hour | |||||||||||||||||
| Temperature (ºF) | Pressure | Precipitation (in) | |||||||||||||||